Time;durP1;ratioP1;P1;durP2;ratioP2;P2;SDS_P1;SDS_P2;PMS_P1;PMS_P2;Temp;Humidity;BMP_temperature;BMP_pressure;BME280_temperature;BME280_humidity;BME280_pressure;Samples;Min_cycle;Max_cycle;Signal;HPM_P1;HPM_P2
2021/05/12 00:00:19;;;;;;;0.60;0.40;;;;;;;;;;5051493;28;20049;-59
2021/05/12 00:02:48;;;;;;;1.67;0.65;;;;;;;;;;5051736;28;20124;-59
2021/05/12 00:05:16;;;;;;;0.52;0.43;;;;;;;;;;5051181;28;20132;-61
2021/05/12 00:07:44;;;;;;;2.60;0.60;;;;;;;;;;5062565;28;20118;-59
2021/05/12 00:10:12;;;;;;;2.92;0.63;;;;;;;;;;5071455;28;20044;-61
2021/05/12 00:12:41;;;;;;;0.80;0.50;;;;;;;;;;5071460;28;20044;-58
2021/05/12 00:15:10;;;;;;;1.98;0.55;;;;;;;;;;5071435;28;20131;-59
2021/05/12 00:17:40;;;;;;;0.70;0.40;;;;;;;;;;5070415;28;20139;-59
2021/05/12 00:20:09;;;;;;;1.60;0.50;;;;;;;;;;5071214;28;20049;-59
2021/05/12 00:22:43;;;;;;;0.40;0.40;;;;;;;;;;5070944;28;20047;-58
2021/05/12 00:25:12;;;;;;;1.40;0.55;;;;;;;;;;5071406;28;20044;-58
2021/05/12 00:27:41;;;;;;;1.77;0.82;;;;;;;;;;5058766;28;20118;-59
2021/05/12 00:30:10;;;;;;;0.77;0.50;;;;;;;;;;5048103;28;20135;-59
2021/05/12 00:32:38;;;;;;;1.02;0.47;;;;;;;;;;5047564;28;20136;-58
2021/05/12 00:35:08;;;;;;;0.57;0.47;;;;;;;;;;5047682;28;20052;-59
2021/05/12 00:37:36;;;;;;;0.70;0.50;;;;;;;;;;5058093;28;20143;-59
2021/05/12 00:40:04;;;;;;;1.92;0.40;;;;;;;;;;5068075;28;20044;-58
2021/05/12 00:42:32;;;;;;;0.47;0.30;;;;;;;;;;5067797;28;20048;-58
2021/05/12 00:45:01;;;;;;;0.45;0.30;;;;;;;;;;5066584;28;20485;-59
2021/05/12 00:47:30;;;;;;;0.60;0.40;;;;;;;;;;5068279;28;20107;-58
2021/05/12 00:49:59;;;;;;;2.42;0.50;;;;;;;;;;5070825;28;20072;-58
2021/05/12 00:52:27;;;;;;;1.08;0.40;;;;;;;;;;5069819;28;20041;-59
2021/05/12 00:54:55;;;;;;;0.30;0.30;;;;;;;;;;5070151;28;20135;-58
2021/05/12 00:57:23;;;;;;;0.32;0.30;;;;;;;;;;5069775;28;20096;-58
2021/05/12 00:59:52;;;;;;;1.23;0.30;;;;;;;;;;5070166;28;20106;-60
2021/05/12 01:02:21;;;;;;;0.50;0.50;;;;;;;;;;5069827;28;20336;-58
2021/05/12 01:04:49;;;;;;;0.60;0.40;;;;;;;;;;5027585;22;20058;-63
2021/05/12 01:07:17;;;;;;;2.22;0.40;;;;;;;;;;4994763;28;20386;-66
2021/05/12 01:09:44;;;;;;;2.15;0.43;;;;;;;;;;4994390;28;20042;-62
2021/05/12 01:12:12;;;;;;;2.10;0.30;;;;;;;;;;4994436;28;20477;-66
2021/05/12 01:14:40;;;;;;;0.40;0.38;;;;;;;;;;4994676;28;20058;-63
2021/05/12 01:17:10;;;;;;;0.95;0.40;;;;;;;;;;4994539;28;20062;-65
2021/05/12 01:19:39;;;;;;;3.85;0.40;;;;;;;;;;4994874;28;20058;-62
2021/05/12 01:22:08;;;;;;;0.55;0.30;;;;;;;;;;4991904;28;20129;-68
2021/05/12 01:24:36;;;;;;;0.25;0.22;;;;;;;;;;4987279;28;20050;-65
2021/05/12 01:27:04;;;;;;;1.77;0.30;;;;;;;;;;4991020;28;20120;-65
2021/05/12 01:29:32;;;;;;;0.77;0.30;;;;;;;;;;4990598;28;20749;-67
2021/05/12 01:31:59;;;;;;;1.17;0.40;;;;;;;;;;4991034;28;20540;-66
2021/05/12 01:34:27;;;;;;;0.80;0.28;;;;;;;;;;4990364;28;20866;-71
2021/05/12 01:36:55;;;;;;;0.88;0.20;;;;;;;;;;4983200;28;20085;-68
2021/05/12 01:39:25;;;;;;;0.20;0.20;;;;;;;;;;4990051;28;20653;-66
2021/05/12 01:41:53;;;;;;;4.65;0.30;;;;;;;;;;4990308;28;20050;-65
2021/05/12 01:44:22;;;;;;;0.22;0.22;;;;;;;;;;4989814;28;20057;-69
2021/05/12 01:46:50;;;;;;;0.30;0.30;;;;;;;;;;4990420;28;20236;-65
2021/05/12 01:49:20;;;;;;;1.50;0.30;;;;;;;;;;4991099;28;20434;-65
2021/05/12 01:51:47;;;;;;;0.20;0.20;;;;;;;;;;4990924;28;20121;-66
2021/05/12 01:54:15;;;;;;;0.22;0.20;;;;;;;;;;4989948;28;20104;-66
2021/05/12 01:56:44;;;;;;;0.25;0.20;;;;;;;;;;4990002;28;20175;-65
2021/05/12 01:59:12;;;;;;;2.92;1.10;;;;;;;;;;4984394;28;20134;-68
2021/05/12 02:01:40;;;;;;;1.55;0.43;;;;;;;;;;4990137;28;20494;-66
2021/05/12 02:04:08;;;;;;;0.50;0.32;;;;;;;;;;4989157;28;20062;-68
2021/05/12 02:06:36;;;;;;;0.60;0.30;;;;;;;;;;4989847;28;20433;-66
2021/05/12 02:09:06;;;;;;;3.20;0.40;;;;;;;;;;4990443;28;20088;-66
2021/05/12 02:11:34;;;;;;;0.77;0.50;;;;;;;;;;4990626;28;20088;-65
2021/05/12 02:14:05;;;;;;;1.45;0.50;;;;;;;;;;4989703;28;20089;-68
2021/05/12 02:16:33;;;;;;;0.38;0.20;;;;;;;;;;4989964;28;20146;-65
2021/05/12 02:19:01;;;;;;;1.02;0.40;;;;;;;;;;4989611;28;20046;-66
2021/05/12 02:21:29;;;;;;;0.47;0.40;;;;;;;;;;4987552;28;20514;-66
2021/05/12 02:23:57;;;;;;;2.15;0.57;;;;;;;;;;4991022;28;20137;-65
2021/05/12 02:26:25;;;;;;;2.22;0.30;;;;;;;;;;4989235;28;20478;-66
2021/05/12 02:28:53;;;;;;;2.15;0.50;;;;;;;;;;4991145;28;20092;-66
2021/05/12 02:31:22;;;;;;;3.97;0.50;;;;;;;;;;4989978;28;20134;-65
2021/05/12 02:33:49;;;;;;;0.90;0.40;;;;;;;;;;4990908;28;20042;-65
2021/05/12 02:36:17;;;;;;;1.98;0.40;;;;;;;;;;4985964;28;20078;-65
2021/05/12 02:38:45;;;;;;;0.50;0.30;;;;;;;;;;4994424;28;20085;-69
2021/05/12 02:41:13;;;;;;;2.75;0.40;;;;;;;;;;4991782;28;20258;-65
2021/05/12 02:43:40;;;;;;;0.28;0.20;;;;;;;;;;4994613;28;20086;-66
2021/05/12 02:46:08;;;;;;;0.57;0.30;;;;;;;;;;4993105;28;20134;-65
2021/05/12 02:48:37;;;;;;;0.47;0.30;;;;;;;;;;4994089;28;20239;-67
2021/05/12 02:51:05;;;;;;;0.85;0.30;;;;;;;;;;4993026;28;20157;-66
2021/05/12 02:53:33;;;;;;;1.25;0.40;;;;;;;;;;4992843;28;20490;-65
2021/05/12 02:56:00;;;;;;;1.02;0.40;;;;;;;;;;4988013;28;20046;-66
2021/05/12 02:58:29;;;;;;;1.67;0.40;;;;;;;;;;4993275;28;20129;-65
2021/05/12 03:00:56;;;;;;;0.73;0.25;;;;;;;;;;4994172;28;20058;-66
2021/05/12 03:03:24;;;;;;;0.30;0.25;;;;;;;;;;4993750;28;20133;-65
2021/05/12 03:05:53;;;;;;;0.85;0.30;;;;;;;;;;4992574;28;20054;-66
2021/05/12 03:08:21;;;;;;;0.63;0.28;;;;;;;;;;4992533;28;20112;-66
2021/05/12 03:10:48;;;;;;;1.25;0.30;;;;;;;;;;4993670;28;20470;-65
2021/05/12 03:13:16;;;;;;;1.00;0.40;;;;;;;;;;4992494;28;20081;-65
2021/05/12 03:15:44;;;;;;;1.95;0.20;;;;;;;;;;4992214;28;20489;-65
2021/05/12 03:18:12;;;;;;;0.60;0.20;;;;;;;;;;4992187;28;20082;-70
2021/05/12 03:20:40;;;;;;;1.38;0.35;;;;;;;;;;4991896;28;20046;-67
2021/05/12 03:23:08;;;;;;;1.02;0.38;;;;;;;;;;4993546;28;20050;-66
2021/05/12 03:25:36;;;;;;;0.55;0.32;;;;;;;;;;4993080;28;20133;-68
2021/05/12 03:28:04;;;;;;;0.30;0.20;;;;;;;;;;4992347;28;20125;-66
2021/05/12 03:30:34;;;;;;;0.45;0.30;;;;;;;;;;4992949;28;20088;-65
2021/05/12 03:33:02;;;;;;;1.63;0.20;;;;;;;;;;4993716;28;20134;-66
2021/05/12 03:35:31;;;;;;;0.40;0.30;;;;;;;;;;4991294;28;20585;-66
2021/05/12 03:37:59;;;;;;;2.15;0.30;;;;;;;;;;4973574;28;20573;-66
2021/05/12 03:40:28;;;;;;;0.98;0.40;;;;;;;;;;4992667;28;20100;-67
2021/05/12 03:42:57;;;;;;;1.42;0.20;;;;;;;;;;4993438;28;20506;-65
2021/05/12 03:45:25;;;;;;;0.28;0.20;;;;;;;;;;4992147;28;20457;-65
2021/05/12 03:47:53;;;;;;;3.97;0.30;;;;;;;;;;4991765;28;20486;-65
2021/05/12 03:50:21;;;;;;;0.55;0.25;;;;;;;;;;4992770;28;20050;-66
2021/05/12 03:52:49;;;;;;;1.17;0.30;;;;;;;;;;4993154;28;20043;-65
2021/05/12 03:55:21;;;;;;;1.13;0.30;;;;;;;;;;4992569;28;20057;-65
2021/05/12 03:57:50;;;;;;;1.38;0.20;;;;;;;;;;4992013;28;20287;-65
2021/05/12 04:00:18;;;;;;;0.98;0.40;;;;;;;;;;4991942;28;20550;-65
2021/05/12 04:02:46;;;;;;;1.48;0.20;;;;;;;;;;4993019;28;20095;-65
2021/05/12 04:05:15;;;;;;;1.08;0.30;;;;;;;;;;4991422;28;20054;-67
2021/05/12 04:07:47;;;;;;;1.40;0.40;;;;;;;;;;4980160;28;20065;-65
2021/05/12 04:10:15;;;;;;;5.88;1.92;;;;;;;;;;4971230;28;20110;-65
2021/05/12 04:12:44;;;;;;;0.70;0.30;;;;;;;;;;4973439;28;20055;-65
2021/05/12 04:15:13;;;;;;;2.38;0.40;;;;;;;;;;4973521;28;20051;-66
2021/05/12 04:17:41;;;;;;;0.30;0.30;;;;;;;;;;4971288;28;20097;-65
2021/05/12 04:20:10;;;;;;;5.28;0.65;;;;;;;;;;4972742;28;20134;-65
2021/05/12 04:22:38;;;;;;;1.30;0.40;;;;;;;;;;4973363;28;20051;-68
2021/05/12 04:25:06;;;;;;;1.80;0.40;;;;;;;;;;4972202;28;20557;-66
2021/05/12 04:27:34;;;;;;;1.38;0.38;;;;;;;;;;4983366;28;20101;-66
2021/05/12 04:30:02;;;;;;;1.00;0.90;;;;;;;;;;4992137;28;20082;-67
2021/05/12 04:32:31;;;;;;;0.82;0.30;;;;;;;;;;4973433;28;20082;-65
2021/05/12 04:34:59;;;;;;;2.72;0.63;;;;;;;;;;4986918;28;20070;-65
2021/05/12 04:37:26;;;;;;;3.17;0.43;;;;;;;;;;4975375;28;20680;-67
2021/05/12 04:39:54;;;;;;;1.00;0.50;;;;;;;;;;4987164;28;20050;-67
2021/05/12 04:42:22;;;;;;;0.85;0.38;;;;;;;;;;4992207;28;20137;-67
2021/05/12 04:44:50;;;;;;;0.75;0.47;;;;;;;;;;4988033;28;20073;-66
2021/05/12 04:47:17;;;;;;;1.13;0.30;;;;;;;;;;4991192;28;20054;-66
2021/05/12 04:49:46;;;;;;;0.68;0.60;;;;;;;;;;4991605;28;20065;-69
2021/05/12 04:52:14;;;;;;;1.55;0.60;;;;;;;;;;4991206;28;20124;-65
2021/05/12 04:54:42;;;;;;;2.97;0.60;;;;;;;;;;4989683;28;20474;-67
2021/05/12 04:57:10;;;;;;;1.67;0.47;;;;;;;;;;4986930;28;20254;-65
2021/05/12 04:59:37;;;;;;;0.70;0.40;;;;;;;;;;4984858;28;20478;-65
2021/05/12 05:02:08;;;;;;;2.25;0.60;;;;;;;;;;4988618;28;20081;-65
2021/05/12 05:04:39;;;;;;;2.45;0.38;;;;;;;;;;4986298;28;20060;-65
2021/05/12 05:07:07;;;;;;;0.93;0.45;;;;;;;;;;4981051;28;20043;-66
2021/05/12 05:09:35;;;;;;;1.58;0.60;;;;;;;;;;4985721;28;20498;-66
2021/05/12 05:12:04;;;;;;;0.47;0.30;;;;;;;;;;4982493;28;20101;-68
2021/05/12 05:14:31;;;;;;;1.80;0.50;;;;;;;;;;4990064;28;20046;-65
2021/05/12 05:17:00;;;;;;;1.42;0.50;;;;;;;;;;4989653;28;20127;-65
2021/05/12 05:19:28;;;;;;;0.90;0.50;;;;;;;;;;4990668;28;20133;-68
2021/05/12 05:21:57;;;;;;;1.67;0.60;;;;;;;;;;4984543;28;20054;-70
2021/05/12 05:24:26;;;;;;;2.70;0.50;;;;;;;;;;4976904;28;20655;-66
2021/05/12 05:26:54;;;;;;;2.67;0.65;;;;;;;;;;4986988;28;20503;-66
2021/05/12 05:29:23;;;;;;;2.10;0.63;;;;;;;;;;4980266;28;20053;-69
2021/05/12 05:31:51;;;;;;;0.80;0.50;;;;;;;;;;4980646;28;20576;-65
2021/05/12 05:34:20;;;;;;;1.27;0.45;;;;;;;;;;4981114;28;20057;-65
2021/05/12 05:36:48;;;;;;;3.90;1.13;;;;;;;;;;4983941;28;20095;-65
2021/05/12 05:39:15;;;;;;;2.55;1.25;;;;;;;;;;4984498;28;20046;-67
2021/05/12 05:41:44;;;;;;;5.40;0.82;;;;;;;;;;4984118;28;20573;-67
2021/05/12 05:44:12;;;;;;;4.00;0.60;;;;;;;;;;4984132;28;20137;-69
2021/05/12 05:46:40;;;;;;;1.80;0.55;;;;;;;;;;4983362;28;20549;-65
2021/05/12 05:49:08;;;;;;;2.15;0.73;;;;;;;;;;4983899;28;20529;-70
2021/05/12 05:51:36;;;;;;;2.08;0.50;;;;;;;;;;4984367;28;20081;-65
2021/05/12 05:54:04;;;;;;;1.73;0.55;;;;;;;;;;4980848;28;20057;-66
2021/05/12 05:56:32;;;;;;;0.75;0.40;;;;;;;;;;4983962;28;20101;-63
2021/05/12 05:59:01;;;;;;;1.00;0.70;;;;;;;;;;4984503;28;20055;-64
2021/05/12 06:01:28;;;;;;;1.85;0.40;;;;;;;;;;4987403;28;20454;-63
2021/05/12 06:03:56;;;;;;;1.20;0.50;;;;;;;;;;4984762;28;20051;-63
2021/05/12 06:06:25;;;;;;;2.83;0.73;;;;;;;;;;4987322;28;20050;-66
2021/05/12 06:08:53;;;;;;;4.53;0.57;;;;;;;;;;4987644;28;20050;-63
2021/05/12 06:11:21;;;;;;;0.95;0.40;;;;;;;;;;4986501;28;20050;-63
2021/05/12 06:13:50;;;;;;;1.42;0.75;;;;;;;;;;4992461;28;20046;-62
2021/05/12 06:16:19;;;;;;;2.38;0.60;;;;;;;;;;4990895;28;20081;-62
2021/05/12 06:18:47;;;;;;;1.65;0.57;;;;;;;;;;4992393;28;20117;-63
2021/05/12 06:21:15;;;;;;;2.17;0.60;;;;;;;;;;4992019;28;20081;-63
2021/05/12 06:23:43;;;;;;;2.65;0.63;;;;;;;;;;4991216;28;20124;-64
2021/05/12 06:26:16;;;;;;;1.60;0.77;;;;;;;;;;4992764;28;20050;-64
2021/05/12 06:28:45;;;;;;;1.42;0.73;;;;;;;;;;4972096;28;20531;-66
2021/05/12 06:31:13;;;;;;;2.30;0.70;;;;;;;;;;4989952;28;20055;-66
2021/05/12 06:33:44;;;;;;;3.80;0.70;;;;;;;;;;4991947;28;20199;-63
2021/05/12 06:36:12;;;;;;;7.50;2.00;;;;;;;;;;4989120;28;20050;-64
2021/05/12 06:38:42;;;;;;;3.33;0.63;;;;;;;;;;4994104;28;20084;-63
2021/05/12 06:41:10;;;;;;;3.25;0.68;;;;;;;;;;4991273;28;20125;-64
2021/05/12 06:43:38;;;;;;;1.98;0.70;;;;;;;;;;4992530;28;20053;-63
2021/05/12 06:46:06;;;;;;;1.52;0.55;;;;;;;;;;4993353;28;20158;-64
2021/05/12 06:48:34;;;;;;;1.27;0.50;;;;;;;;;;4982717;28;20061;-66
2021/05/12 06:51:03;;;;;;;1.88;0.80;;;;;;;;;;4983708;28;20428;-64
2021/05/12 06:53:32;;;;;;;1.42;0.68;;;;;;;;;;4978536;28;20085;-63
2021/05/12 06:56:00;;;;;;;1.05;0.73;;;;;;;;;;4979683;28;20362;-64
2021/05/12 06:58:28;;;;;;;2.50;0.80;;;;;;;;;;4986923;28;20058;-63
2021/05/12 07:00:56;;;;;;;4.22;1.17;;;;;;;;;;4982736;28;20054;-63
2021/05/12 07:03:24;;;;;;;1.45;0.80;;;;;;;;;;4983034;28;20054;-63
2021/05/12 07:05:53;;;;;;;2.70;0.73;;;;;;;;;;4987518;28;20053;-64
2021/05/12 07:08:23;;;;;;;1.92;0.70;;;;;;;;;;4992790;28;20070;-67
2021/05/12 07:10:51;;;;;;;5.05;1.27;;;;;;;;;;4984496;28;20417;-63
2021/05/12 07:13:20;;;;;;;1.75;1.00;;;;;;;;;;4989562;28;20050;-64
2021/05/12 07:15:48;;;;;;;2.08;1.20;;;;;;;;;;4984706;28;20045;-63
2021/05/12 07:18:17;;;;;;;2.13;1.10;;;;;;;;;;4984506;28;20053;-63
2021/05/12 07:20:46;;;;;;;3.10;1.27;;;;;;;;;;4982927;28;20809;-64
2021/05/12 07:23:19;;;;;;;2.75;0.90;;;;;;;;;;4987644;28;20058;-63
2021/05/12 07:25:49;;;;;;;2.85;1.30;;;;;;;;;;4984618;28;20425;-63
2021/05/12 07:28:19;;;;;;;3.75;1.10;;;;;;;;;;4982644;28;20054;-63
2021/05/12 07:30:47;;;;;;;3.95;1.25;;;;;;;;;;4989704;28;20100;-63
2021/05/12 07:33:20;;;;;;;1.52;0.80;;;;;;;;;;4980815;28;20497;-63
2021/05/12 07:35:49;;;;;;;3.03;1.30;;;;;;;;;;4982963;28;20410;-64
2021/05/12 07:38:17;;;;;;;4.57;1.27;;;;;;;;;;4979874;28;20050;-64
2021/05/12 07:40:45;;;;;;;1.50;1.08;;;;;;;;;;4984052;28;20051;-64
2021/05/12 07:43:15;;;;;;;1.90;0.90;;;;;;;;;;4990280;28;20073;-65
2021/05/12 07:45:44;;;;;;;1.98;1.00;;;;;;;;;;4991584;28;20433;-65
2021/05/12 07:48:13;;;;;;;4.35;1.30;;;;;;;;;;4988386;28;20474;-63
2021/05/12 07:50:42;;;;;;;1.73;1.10;;;;;;;;;;4984068;28;20051;-63
2021/05/12 07:53:10;;;;;;;1.73;1.08;;;;;;;;;;4986388;28;20137;-64
2021/05/12 07:55:38;;;;;;;2.17;1.00;;;;;;;;;;4991105;28;20042;-63
2021/05/12 07:58:07;;;;;;;2.50;1.23;;;;;;;;;;4986944;28;20165;-66
2021/05/12 08:00:36;;;;;;;1.23;0.88;;;;;;;;;;4986982;28;20396;-63
2021/05/12 08:03:05;;;;;;;2.03;0.85;;;;;;;;;;4986074;28;20054;-65
2021/05/12 08:05:34;;;;;;;3.63;1.20;;;;;;;;;;4984806;28;20050;-64
2021/05/12 08:08:02;;;;;;;1.77;0.95;;;;;;;;;;4988003;28;20141;-64
2021/05/12 08:10:31;;;;;;;2.42;1.27;;;;;;;;;;4986676;28;20062;-63
2021/05/12 08:12:59;;;;;;;1.55;1.00;;;;;;;;;;4988042;28;20101;-65
2021/05/12 08:15:28;;;;;;;5.22;1.42;;;;;;;;;;4990589;28;20145;-63
2021/05/12 08:17:57;;;;;;;2.08;1.20;;;;;;;;;;4989760;28;20050;-65
2021/05/12 08:20:26;;;;;;;2.13;1.27;;;;;;;;;;4978773;28;20066;-64
2021/05/12 08:22:55;;;;;;;2.28;1.20;;;;;;;;;;4986063;28;20055;-65
2021/05/12 08:25:23;;;;;;;1.58;1.00;;;;;;;;;;4981162;28;20441;-65
2021/05/12 08:27:53;;;;;;;6.55;1.38;;;;;;;;;;4983243;28;20061;-65
2021/05/12 08:30:24;;;;;;;4.53;1.92;;;;;;;;;;4985218;28;20125;-63
2021/05/12 08:32:54;;;;;;;4.30;1.80;;;;;;;;;;4987644;28;20089;-64
2021/05/12 08:35:24;;;;;;;4.10;1.80;;;;;;;;;;4990241;28;20046;-66
2021/05/12 08:37:52;;;;;;;6.10;1.50;;;;;;;;;;4985678;28;20050;-65
2021/05/12 08:40:21;;;;;;;8.85;1.60;;;;;;;;;;4989490;28;20311;-68
2021/05/12 08:42:49;;;;;;;2.97;1.30;;;;;;;;;;4989284;28;20497;-63
2021/05/12 08:45:18;;;;;;;5.07;1.80;;;;;;;;;;4984272;28;20058;-64
2021/05/12 08:47:54;;;;;;;4.10;1.33;;;;;;;;;;4980224;28;20050;-64
2021/05/12 08:50:24;;;;;;;7.97;1.58;;;;;;;;;;4987001;28;20405;-63
2021/05/12 08:52:53;;;;;;;4.25;1.50;;;;;;;;;;4988971;28;20132;-64
2021/05/12 08:55:21;;;;;;;2.50;1.23;;;;;;;;;;4982555;28;20081;-64
2021/05/12 08:57:51;;;;;;;3.28;1.38;;;;;;;;;;4983623;28;20050;-63
2021/05/12 09:00:19;;;;;;;4.55;1.30;;;;;;;;;;4977078;28;20105;-63
2021/05/12 09:02:48;;;;;;;3.55;1.77;;;;;;;;;;4982146;28;20042;-64
2021/05/12 09:05:17;;;;;;;5.15;1.48;;;;;;;;;;4981577;28;20051;-64
2021/05/12 09:07:46;;;;;;;2.03;1.30;;;;;;;;;;4987900;28;20039;-63
2021/05/12 09:10:14;;;;;;;4.55;1.50;;;;;;;;;;4989520;28;20046;-67
2021/05/12 09:12:44;;;;;;;3.88;1.80;;;;;;;;;;4988703;28;20069;-63
2021/05/12 09:15:15;;;;;;;2.30;2.00;;;;;;;;;;4984587;28;20545;-64
2021/05/12 09:17:45;;;;;;;4.05;2.00;;;;;;;;;;4988659;28;20090;-65
2021/05/12 09:20:30;;;;;;;4.32;1.88;;;;;;;;;;4985100;28;20133;-68
2021/05/12 09:23:08;;;;;;;4.30;1.90;;;;;;;;;;4985822;28;20043;-68
2021/05/12 09:25:37;;;;;;;4.47;1.90;;;;;;;;;;4986218;28;20568;-64
2021/05/12 09:28:10;;;;;;;7.63;2.45;;;;;;;;;;4986586;28;20052;-64
2021/05/12 09:30:38;;;;;;;3.83;2.10;;;;;;;;;;4985120;28;20046;-67
2021/05/12 09:33:08;;;;;;;4.57;2.17;;;;;;;;;;4984646;28;20042;-65
2021/05/12 09:35:44;;;;;;;4.18;2.42;;;;;;;;;;4984210;28;20150;-65
2021/05/12 09:38:21;;;;;;;3.92;2.20;;;;;;;;;;4978086;28;20109;-64
2021/05/12 09:41:20;;;;;;;4.15;2.65;;;;;;;;;;4986405;28;20053;-68
2021/05/12 09:43:55;;;;;;;5.25;2.90;;;;;;;;;;4925945;29;20162;-64
2021/05/12 09:46:24;;;;;;;4.45;2.80;;;;;;;;;;4974648;28;20054;-67
2021/05/12 09:49:22;;;;;;;4.43;2.78;;;;;;;;;;4986629;28;20050;-64
2021/05/12 09:51:51;;;;;;;6.43;3.33;;;;;;;;;;4903629;29;20427;-64
2021/05/12 09:54:22;;;;;;;4.80;3.05;;;;;;;;;;4966548;28;20399;-64
2021/05/12 09:56:52;;;;;;;7.38;2.75;;;;;;;;;;4987490;28;20043;-64
2021/05/12 09:59:22;;;;;;;7.05;1.75;;;;;;;;;;4988214;28;20046;-63
2021/05/12 10:01:54;;;;;;;3.17;1.58;;;;;;;;;;4984141;28;20049;-66
2021/05/12 10:04:26;;;;;;;2.85;1.00;;;;;;;;;;4985095;28;20544;-63
2021/05/12 10:06:55;;;;;;;4.40;1.40;;;;;;;;;;4987969;28;20077;-63
2021/05/12 10:09:25;;;;;;;1.95;1.30;;;;;;;;;;4984897;28;20058;-64
2021/05/12 10:12:00;;;;;;;3.90;1.63;;;;;;;;;;4977431;28;20480;-65
2021/05/12 10:14:28;;;;;;;6.28;1.80;;;;;;;;;;4986636;28;20089;-64
2021/05/12 10:16:57;;;;;;;7.57;1.63;;;;;;;;;;4982920;28;20054;-64
2021/05/12 10:19:26;;;;;;;2.63;0.88;;;;;;;;;;4986781;28;20073;-64
2021/05/12 10:21:54;;;;;;;1.55;1.10;;;;;;;;;;4987457;28;20066;-64
2021/05/12 10:24:23;;;;;;;1.15;0.85;;;;;;;;;;4985899;28;20043;-64
2021/05/12 10:26:52;;;;;;;3.42;1.00;;;;;;;;;;4979654;28;20198;-64
2021/05/12 10:29:21;;;;;;;1.20;0.90;;;;;;;;;;4985035;28;20050;-65
2021/05/12 10:31:50;;;;;;;2.28;0.90;;;;;;;;;;4981881;28;20042;-64
2021/05/12 10:34:19;;;;;;;2.33;0.80;;;;;;;;;;4982868;28;20046;-66
2021/05/12 10:37:08;;;;;;;4.47;0.93;;;;;;;;;;4978407;28;20051;-63
2021/05/12 10:39:42;;;;;;;1.30;0.90;;;;;;;;;;4978469;28;20050;-63
2021/05/12 10:42:12;;;;;;;2.28;1.00;;;;;;;;;;4987788;28;20050;-64
2021/05/12 10:44:42;;;;;;;2.25;1.00;;;;;;;;;;4987458;28;20121;-64
2021/05/12 10:47:17;;;;;;;3.00;1.30;;;;;;;;;;4986628;28;20053;-65
2021/05/12 10:49:50;;;;;;;4.25;1.38;;;;;;;;;;4985912;28;20505;-65
2021/05/12 10:52:19;;;;;;;3.10;1.40;;;;;;;;;;4979001;28;20053;-64
2021/05/12 10:54:48;;;;;;;3.03;1.85;;;;;;;;;;4985674;28;20054;-63
2021/05/12 10:57:31;;;;;;;2.15;1.38;;;;;;;;;;4986779;28;20112;-64
2021/05/12 11:00:00;;;;;;;2.65;1.08;;;;;;;;;;4981568;28;20069;-64
2021/05/12 11:02:59;;;;;;;2.13;1.00;;;;;;;;;;4981223;28;20500;-66
2021/05/12 11:05:41;;;;;;;2.20;0.98;;;;;;;;;;4980721;28;20065;-64
2021/05/12 11:08:17;;;;;;;2.30;1.20;;;;;;;;;;4983254;28;20085;-64
2021/05/12 11:10:52;;;;;;;3.42;1.30;;;;;;;;;;4988143;28;20498;-64
2021/05/12 11:13:21;;;;;;;6.70;1.38;;;;;;;;;;4988408;28;20046;-67
2021/05/12 11:15:53;;;;;;;4.13;1.30;;;;;;;;;;4984331;28;20059;-66
2021/05/12 11:18:40;;;;;;;2.58;1.88;;;;;;;;;;4976259;28;20172;-68
2021/05/12 11:21:25;;;;;;;2.70;1.50;;;;;;;;;;4981812;28;20413;-66
2021/05/12 11:24:14;;;;;;;2.40;1.40;;;;;;;;;;4987265;28;20443;-63
2021/05/12 11:26:53;;;;;;;2.17;1.33;;;;;;;;;;4982128;28;20050;-63
2021/05/12 11:32:10;;;;;;;2.13;1.40;;;;;;;;;;4972791;28;20137;-64
2021/05/12 11:34:39;;;;;;;3.58;1.77;;;;;;;;;;4982923;28;20050;-65
2021/05/12 11:37:09;;;;;;;3.03;1.80;;;;;;;;;;4974400;28;21408;-68
2021/05/12 11:39:53;;;;;;;1.70;1.33;;;;;;;;;;4986752;28;20494;-64
2021/05/12 11:42:22;;;;;;;4.50;1.60;;;;;;;;;;4991518;28;20050;-64
2021/05/12 11:45:03;;;;;;;2.20;1.50;;;;;;;;;;4989945;28;20398;-64
2021/05/12 11:47:33;;;;;;;1.90;1.33;;;;;;;;;;4984902;28;20526;-64
2021/05/12 11:50:01;;;;;;;5.13;1.58;;;;;;;;;;4982815;28;20408;-64
2021/05/12 11:52:29;;;;;;;2.33;1.23;;;;;;;;;;4976873;28;20546;-64
2021/05/12 11:55:04;;;;;;;1.55;1.25;;;;;;;;;;4984550;28;20053;-67
2021/05/12 11:57:32;;;;;;;1.40;1.10;;;;;;;;;;4979391;28;20046;-67
2021/05/12 12:00:03;;;;;;;1.35;1.05;;;;;;;;;;4983556;28;20047;-65
2021/05/12 12:02:33;;;;;;;2.08;1.30;;;;;;;;;;4986172;28;20057;-68
2021/05/12 12:05:02;;;;;;;4.07;1.23;;;;;;;;;;4984336;28;20051;-65
2021/05/12 12:07:32;;;;;;;2.97;1.77;;;;;;;;;;4988075;28;20093;-65
2021/05/12 12:10:01;;;;;;;2.35;1.33;;;;;;;;;;4989522;28;20046;-65
2021/05/12 12:12:30;;;;;;;3.00;1.35;;;;;;;;;;4987379;28;20069;-65
2021/05/12 12:15:04;;;;;;;3.92;1.60;;;;;;;;;;4987160;28;20061;-64
2021/05/12 12:17:34;;;;;;;3.03;1.80;;;;;;;;;;4985318;28;20073;-65
2021/05/12 12:20:02;;;;;;;3.17;1.60;;;;;;;;;;4988624;28;20042;-70
2021/05/12 12:22:30;;;;;;;2.17;1.50;;;;;;;;;;4981140;28;20051;-70
2021/05/12 12:25:11;;;;;;;2.65;1.60;;;;;;;;;;4989805;28;20061;-66
2021/05/12 12:27:40;;;;;;;2.47;1.70;;;;;;;;;;4987181;28;20104;-66
2021/05/12 12:30:09;;;;;;;3.83;2.05;;;;;;;;;;4987883;28;20042;-65
2021/05/12 12:32:39;;;;;;;3.35;2.00;;;;;;;;;;4988282;28;20042;-65
2021/05/12 12:35:08;;;;;;;2.47;1.67;;;;;;;;;;4983285;28;20054;-67
2021/05/12 12:37:53;;;;;;;3.44;2.02;;;;;;;;;;2560968;28;10003359;-65
2021/05/12 12:40:23;;;;;;;6.85;2.10;;;;;;;;;;3613466;28;10001826;-65
2021/05/12 12:42:52;;;;;;;2.85;1.98;;;;;;;;;;4989885;28;20553;-67
2021/05/12 12:45:23;;;;;;;4.22;2.10;;;;;;;;;;4987385;28;20046;-65
2021/05/12 12:47:53;;;;;;;3.17;2.10;;;;;;;;;;4990193;28;20564;-65
2021/05/12 12:50:22;;;;;;;5.90;2.80;;;;;;;;;;4989228;28;20053;-65
2021/05/12 12:52:50;;;;;;;4.47;2.42;;;;;;;;;;4987617;28;20506;-66
2021/05/12 12:55:19;;;;;;;4.57;2.42;;;;;;;;;;4981163;28;20057;-70
2021/05/12 12:57:48;;;;;;;5.63;2.42;;;;;;;;;;4983091;28;20066;-67
2021/05/12 13:00:22;;;;;;;4.35;2.05;;;;;;;;;;4989506;28;20046;-65
2021/05/12 13:02:58;;;;;;;3.30;2.60;;;;;;;;;;4989860;28;20482;-65
2021/05/12 13:05:31;;;;;;;4.68;2.70;;;;;;;;;;4981961;28;20078;-67
2021/05/12 13:08:19;;;;;;;4.78;2.65;;;;;;;;;;4991358;28;20081;-65
2021/05/12 13:11:11;;;;;;;5.25;2.47;;;;;;;;;;4987435;28;20054;-66
2021/05/12 13:13:43;;;;;;;4.53;2.65;;;;;;;;;;4991062;28;20129;-68
2021/05/12 13:16:19;;;;;;;5.25;3.20;;;;;;;;;;4989146;28;20129;-64
2021/05/12 13:18:57;;;;;;;4.65;3.40;;;;;;;;;;4949647;28;20469;-67
2021/05/12 13:21:28;;;;;;;6.15;3.60;;;;;;;;;;4962762;28;20054;-69
2021/05/12 13:23:58;;;;;;;8.50;3.83;;;;;;;;;;4988170;28;20061;-69
2021/05/12 13:26:27;;;;;;;6.90;4.07;;;;;;;;;;4984991;28;20050;-68
2021/05/12 13:28:56;;;;;;;7.28;4.32;;;;;;;;;;4978862;28;20058;-67
2021/05/12 13:31:28;;;;;;;5.85;4.03;;;;;;;;;;4986444;28;20502;-67
2021/05/12 13:33:58;;;;;;;5.55;3.88;;;;;;;;;;4983571;28;20137;-67
2021/05/12 13:36:27;;;;;;;8.13;4.38;;;;;;;;;;4979787;28;20050;-69
2021/05/12 13:38:56;;;;;;;6.80;3.67;;;;;;;;;;4982491;28;20055;-66
2021/05/12 13:41:25;;;;;;;6.80;3.92;;;;;;;;;;4986454;28;20057;-68
2021/05/12 13:43:53;;;;;;;8.00;4.20;;;;;;;;;;4986397;28;20054;-66
2021/05/12 13:46:22;;;;;;;7.45;4.32;;;;;;;;;;4980805;28;20490;-70
2021/05/12 13:48:52;;;;;;;7.90;4.93;;;;;;;;;;4986901;28;20134;-68
2021/05/12 13:51:21;;;;;;;9.15;5.30;;;;;;;;;;4986220;28;20371;-68
2021/05/12 13:53:54;;;;;;;6.13;4.80;;;;;;;;;;4986343;28;20070;-68
2021/05/12 13:56:29;;;;;;;9.23;4.93;;;;;;;;;;4986682;28;20054;-70
2021/05/12 13:59:09;;;;;;;10.97;5.87;;;;;;;;;;4986774;28;20089;-69
2021/05/12 14:01:56;;;;;;;9.57;5.18;;;;;;;;;;4984503;28;20395;-72
2021/05/12 14:04:26;;;;;;;8.20;5.65;;;;;;;;;;4987982;28;20158;-69
2021/05/12 14:06:56;;;;;;;7.68;5.28;;;;;;;;;;4984041;28;20054;-70
2021/05/12 14:09:28;;;;;;;10.10;5.55;;;;;;;;;;4986393;28;20046;-67
2021/05/12 14:11:58;;;;;;;7.82;5.70;;;;;;;;;;4987349;28;20045;-67
2021/05/12 14:14:34;;;;;;;10.32;5.38;;;;;;;;;;4985308;28;20540;-71
2021/05/12 14:17:08;;;;;;;8.98;5.85;;;;;;;;;;4980889;28;20046;-70
2021/05/12 14:19:36;;;;;;;10.23;5.70;;;;;;;;;;4983401;28;20433;-68
2021/05/12 14:22:06;;;;;;;12.45;5.45;;;;;;;;;;4982203;28;20951;-68
2021/05/12 14:24:34;;;;;;;8.77;5.40;;;;;;;;;;4980872;28;20057;-72
2021/05/12 14:27:04;;;;;;;9.98;5.70;;;;;;;;;;4972154;28;20105;-70
2021/05/12 14:29:36;;;;;;;6.70;5.18;;;;;;;;;;4981303;28;20105;-67
2021/05/12 14:32:05;;;;;;;6.70;5.00;;;;;;;;;;4977928;28;20453;-71
2021/05/12 14:34:33;;;;;;;9.98;5.97;;;;;;;;;;4977442;28;20050;-67
2021/05/12 14:37:01;;;;;;;9.95;5.75;;;;;;;;;;4989147;28;20054;-70
2021/05/12 14:39:33;;;;;;;9.65;5.40;;;;;;;;;;4990346;28;20050;-67
2021/05/12 14:42:04;;;;;;;8.18;5.55;;;;;;;;;;4990671;28;20054;-67
2021/05/12 14:44:32;;;;;;;10.45;5.68;;;;;;;;;;4988317;28;20493;-69
2021/05/12 14:47:00;;;;;;;10.20;5.95;;;;;;;;;;4983130;28;20062;-72
2021/05/12 14:49:30;;;;;;;12.50;5.03;;;;;;;;;;4984083;28;20413;-69
2021/05/12 14:52:05;;;;;;;9.07;5.30;;;;;;;;;;4990963;28;20046;-69
2021/05/12 14:54:38;;;;;;;8.52;5.28;;;;;;;;;;4989438;28;20398;-68
2021/05/12 14:57:22;;;;;;;9.82;5.65;;;;;;;;;;4986160;28;20502;-67
2021/05/12 15:02:46;;;;;;;10.20;5.07;;;;;;;;;;4986902;28;20129;-67
2021/05/12 15:07:59;;;;;;;10.68;5.95;;;;;;;;;;4976989;28;20410;-68